Data for 06/29/2015

Time Sea-Level Adjusted Pressure Absolute Pressure Temperature Relative Humidity Dew Point   
(mb) (inHg) (mb) (inHg) (C) (F) (%) (C) (F)
00:05 1022 30.18 852 25.16 24.3 75.8 33 7 44.6
00:10 1022 30.18 852 25.16 24.4 75.9 32 7 44.6
00:15 1022 30.18 852 25.16 24.4 76 32 6.9 44.4
00:20 1022 30.18 852 25.16 24.5 76.1 32 7.1 44.7
00:25 1022 30.18 852 25.16 24.4 75.8 33 7.1 44.8
00:30 1022 30.18 852 25.16 24.3 75.8 32 7 44.6
00:35 1022 30.18 852 25.16 24.4 75.9 32 6.9 44.4
00:40 1022 30.18 852 25.16 24.4 76 32 7.1 44.8
00:45 1022 30.18 852 25.16 24.2 75.6 32 6.9 44.5
00:50 1022 30.18 852 25.16 24.2 75.6 32 6.8 44.3
00:55 1022 30.18 852 25.16 24.4 75.9 31 6.6 43.9
01:00 1022 30.18 852 25.16 24.7 76.4 31 6.6 43.8
01:05 1022 30.18 852 25.16 25 77 30 6.4 43.6
01:10 1022 30.18 852 25.16 25.2 77.3 30 6.5 43.8
01:15 1022 30.18 852 25.16 24.9 76.9 31 6.9 44.4
01:20 1022 30.18 852 25.16 24.3 75.8 33 7.2 44.9
01:25 1022 30.18 852 25.16 23.7 74.7 33 6.9 44.5
01:30 1022 30.18 852 25.16 23.7 74.6 33 6.8 44.2
01:35 1022 30.18 852 25.16 23.7 74.6 33 6.8 44.2
01:40 1022 30.18 852 25.16 23.6 74.4 33 6.7 44.1
01:45 1022 30.18 852 25.16 23.8 74.8 33 6.8 44.3
01:50 1022 30.18 852 25.16 23.5 74.4 34 7 44.6
01:55 1022 30.18 852 25.16 23.2 73.7 35 7 44.7
02:00 1022 30.18 852 25.16 22.8 73.1 36 7.1 44.8
02:05 1022 30.18 852 25.16 22.9 73.3 35 6.7 44
02:10 1022 30.18 852 25.16 23.2 73.8 34 6.5 43.8
02:15 1022 30.18 852 25.16 23.4 74.1 33 6.5 43.6
02:20 1022 30.18 852 25.16 23.4 74.2 33 6.4 43.6
02:25 1022 30.18 851 25.13 23.6 74.5 33 6.5 43.7
02:30 1022 30.18 851 25.13 23.5 74.4 33 6.7 44.1
02:35 1022 30.18 851 25.13 23.1 73.6 34 6.8 44.3
02:40 1022 30.18 851 25.13 22.7 72.9 36 6.9 44.5
02:45 1022 30.18 851 25.13 22.5 72.4 36 6.8 44.3
02:50 1022 30.18 851 25.13 22.7 72.8 35 6.5 43.6
02:55 1022 30.18 851 25.13 23 73.5 34 6.3 43.4
03:00 1022 30.18 851 25.13 23.2 73.8 34 6.6 43.9
03:05 1022 30.18 851 25.13 23 73.4 34 6.5 43.6
03:10 1022 30.18 852 25.16 23.1 73.6 34 6.5 43.6
03:15 1022 30.18 852 25.16 22.9 73.2 35 6.9 44.5
03:20 1022 30.18 852 25.16 22.5 72.4 38 7.4 45.4
03:25 1022 30.18 852 25.16 21.2 70.1 41 7.4 45.3
03:30 1022 30.18 852 25.16 21.1 69.9 40 7.1 44.7
03:35 1022 30.18 852 25.16 21.1 70 40 7.3 45.1
03:40 1022 30.18 852 25.16 21 69.7 41 7.4 45.3
03:45 1022 30.18 852 25.16 20.6 69.1 42 7.5 45.5
03:50 1022 30.18 852 25.16 20.3 68.5 43 7.5 45.6
03:55 1023 30.21 852 25.16 20 68.1 47 8.6 47.5
04:00 1023 30.21 852 25.16 19.5 67.2 45 7.5 45.6
04:05 1023 30.21 852 25.16 19.6 67.3 44 7.2 45
04:10 1022 30.18 852 25.16 20.2 68.4 42 6.9 44.5
04:15 1022 30.18 852 25.16 20.6 69 42 7.3 45.2
04:20 1022 30.18 852 25.16 20.3 68.6 43 7.4 45.4
04:25 1022 30.18 852 25.16 20.3 68.6 42 7 44.6
04:30 1023 30.21 852 25.16 20.7 69.3 41 7.1 44.7
04:35 1023 30.21 852 25.16 20.7 69.3 42 7.4 45.3
04:40 1023 30.21 852 25.16 19.9 67.9 44 7.6 45.6
04:45 1023 30.21 852 25.16 19.7 67.4 43 7 44.7
04:50 1023 30.21 852 25.16 20 67.9 43 7.1 44.7
04:55 1023 30.21 852 25.16 20 68.1 45 7.9 46.2
05:00 1023 30.21 852 25.16 19.9 67.8 44 7.3 45.2
05:05 1023 30.21 852 25.16 19.6 67.4 44 7.1 44.8
05:10 1023 30.21 852 25.16 19.7 67.4 43 7 44.6
05:15 1023 30.21 852 25.16 19.6 67.3 45 7.5 45.5
05:20 1023 30.21 852 25.16 19.6 67.2 44 7.2 44.9
05:25 1023 30.21 852 25.16 19.6 67.3 44 7.1 44.7
05:30 1023 30.21 852 25.16 19.7 67.5 42 6.7 44
05:35 1023 30.21 852 25.16 20.1 68.2 42 6.8 44.3
05:40 1023 30.21 852 25.16 20.4 68.8 42 7.2 44.9
05:45 1023 30.21 852 25.16 20.2 68.4 44 7.8 46.1
05:50 1023 30.21 853 25.19 19.7 67.4 46 7.8 46
05:55 1023 30.21 853 25.19 19.6 67.4 46 7.8 46
06:00 1023 30.21 853 25.19 19.8 67.6 47 8.2 46.7
06:05 1023 30.21 853 25.19 19.9 67.8 46 8.1 46.6
06:10 1023 30.21 853 25.19 20.1 68.1 47 8.5 47.4
06:15 1023 30.21 853 25.19 20.3 68.5 45 8.2 46.8
06:20 1023 30.21 853 25.19 20.4 68.8 45 8.4 47.1
06:25 1023 30.21 853 25.19 20.8 69.5 43 8.1 46.6
06:30 1023 30.21 853 25.19 20.9 69.6 45 8.6 47.5
06:35 1023 30.21 853 25.19 21 69.8 43 8.2 46.8
06:40 1023 30.21 853 25.19 21.1 70 43 8.3 46.9
06:45 1023 30.21 853 25.19 21.5 70.7 46 9.7 49.4
06:50 1023 30.21 853 25.19 21.9 71.5 43 8.8 47.8
06:55 1023 30.21 853 25.19 22.3 72.2 41 8.7 47.7
07:00 1023 30.21 853 25.19 22.7 72.8 39 8.1 46.6
07:05 1023 30.21 853 25.19 23 73.4 39 8.5 47.2
07:10 1023 30.21 853 25.19 23.3 74 39 8.7 47.7
07:15 1023 30.21 853 25.19 23.5 74.2 40 9.3 48.8
07:20 1023 30.21 853 25.19 23.7 74.7 41 9.8 49.7
07:25 1023 30.21 853 25.19 24 75.2 37 8.7 47.6
07:30 1023 30.21 853 25.19 24.4 75.8 35 8.2 46.7
07:35 1023 30.21 853 25.19 24.7 76.5 35 8.7 47.6
07:40 1023 30.21 853 25.19 24.8 76.7 33 7.8 46
07:45 1023 30.21 853 25.19 24.9 76.8 34 8 46.4
07:50 1023 30.21 853 25.19 24.9 76.8 34 8.3 46.9
07:55 1023 30.21 852 25.16 24.8 76.7 34 8.1 46.6
08:00 1023 30.21 852 25.16 25.1 77.1 33 7.9 46.2
08:05 1023 30.21 852 25.16 25.2 77.4 34 8.3 47
08:10 1023 30.21 852 25.16 25.5 78 32 7.9 46.2
08:15 1023 30.21 852 25.16 25.6 78.1 32 7.9 46.1
08:20 1023 30.21 852 25.16 25.9 78.6 30 7.4 45.4
08:25 1023 30.21 852 25.16 26 78.9 31 7.7 45.8
08:30 1023 30.21 852 25.16 26.6 79.9 33 9.1 48.5
08:35 1023 30.21 852 25.16 27.3 81.2 30 8.6 47.5
08:40 1023 30.21 852 25.16 27.3 81.1 31 9 48.1
08:45 1023 30.21 852 25.16 27.6 81.7 30 8.9 48
08:50 1023 30.21 852 25.16 27.8 82 30 8.7 47.7
08:55 1023 30.21 852 25.16 28.6 83.5 28 8.5 47.3
09:00 1023 30.21 852 25.16 28.3 83 29 8.9 47.9
09:05 1023 30.21 852 25.16 28.7 83.6 28 8.8 47.8
09:10 1023 30.21 852 25.16 28.8 83.8 28 9 48.1
09:15 1023 30.21 852 25.16 29.1 84.4 27 8.6 47.4
09:20 1023 30.21 852 25.16 29.4 84.9 27 8.9 48.1
09:25 1023 30.21 852 25.16 29.5 85.1 26 8.3 47
09:30 1023 30.21 852 25.16 29.5 85.2 27 8.8 47.8
09:35 1023 30.21 852 25.16 29.9 85.8 28 9.7 49.4
09:40 1023 30.21 852 25.16 29.9 85.9 29 10.1 50.1
09:45 1023 30.21 852 25.16 29.9 85.9 27 9.3 48.8
09:50 1023 30.21 852 25.16 30.2 86.3 28 9.8 49.7
09:55 1023 30.21 852 25.16 30.4 86.7 27 9.8 49.7
10:00 1023 30.21 852 25.16 30.3 86.5 27 9.4 48.9
10:05 1022 30.18 852 25.16 31.1 88 26 9.7 49.5
10:10 1022 30.18 852 25.16 31.1 87.9 26 9.4 48.9
10:15 1022 30.18 852 25.16 31.2 88.1 26 9.7 49.5
10:20 1022 30.18 852 25.16 30.8 87.4 26 9.5 49.1
10:25 1022 30.18 852 25.16 30.4 86.8 26 9 48.3
10:30 1022 30.18 851 25.13 31 87.8 26 9.8 49.6
10:35 1022 30.18 851 25.13 31.1 88.1 25 9.2 48.6
10:40 1022 30.18 851 25.13 31.4 88.5 26 10 50
10:45 1022 30.18 851 25.13 30.8 87.5 25 9 48.2
10:50 1022 30.18 851 25.13 31.8 89.2 25 9.5 49.1
10:55 1022 30.18 851 25.13 32 89.7 23 8.9 48
11:00 1022 30.18 851 25.13 31.5 88.8 24 9.1 48.3
11:05 1022 30.18 851 25.13 31.7 89.1 23 8.7 47.7
11:10 1022 30.18 851 25.13 32.4 90.3 23 8.8 47.8
11:15 1022 30.18 851 25.13 32.7 90.9 23 9.3 48.7
11:20 1022 30.18 851 25.13 33.1 91.6 20 7.6 45.7
11:25 1022 30.18 851 25.13 32.8 91 19 6.5 43.7
11:30 1022 30.18 851 25.13 32.7 90.8 19 6.5 43.7
11:35 1022 30.18 851 25.13 33.1 91.6 18 6.3 43.4
11:40 1022 30.18 851 25.13 33.3 91.9 18 6.2 43.1
11:45 1022 30.18 851 25.13 33.2 91.8 18 6.1 42.9
11:50 1021 30.15 851 25.13 33.5 92.2 17 5.6 42.1
11:55 1021 30.15 851 25.13 33.4 92.2 17 5.9 42.6
12:00 1021 30.15 851 25.13 33.5 92.3 16 4.5 40
12:05 1021 30.15 851 25.13 33.9 92.9 15 3.9 38.9
12:10 1021 30.15 850 25.1 33.8 92.9 17 6.1 43
12:15 1021 30.15 850 25.1 34 93.2 15 3.8 38.8
12:20 1021 30.15 850 25.1 34.3 93.7 14 3.6 38.5
12:25 1021 30.15 850 25.1 34.1 93.3 15 4.1 39.4
12:30 1021 30.15 850 25.1 33.8 92.9 15 3.8 38.9
12:35 1021 30.15 850 25.1 33.9 93.1 15 4.3 39.7
12:40 1021 30.15 850 25.1 33.8 92.8 15 4.4 40
12:45 1021 30.15 850 25.1 33.8 92.9 15 4 39.1
12:50 1021 30.15 850 25.1 34.3 93.7 15 4.6 40.3
12:55 1021 30.15 850 25.1 34.2 93.5 15 4.7 40.5
13:00 1021 30.15 850 25.1 34.1 93.3 16 5.5 41.9
13:05 1021 30.15 850 25.1 34.3 93.7 17 6.3 43.3
13:10 1021 30.15 850 25.1 34.2 93.5 16 5.6 42
13:15 1021 30.15 850 25.1 34 93.2 16 4.6 40.3
13:20 1020 30.12 850 25.1 34.2 93.6 16 5 41
13:25 1020 30.12 850 25.1 33.6 92.4 16 4.3 39.7
13:30 1020 30.12 850 25.1 34 93.3 15 4.4 39.9
13:35 1020 30.12 849 25.07 34.6 94.2 15 4.6 40.3
13:40 1020 30.12 849 25.07 34.8 94.6 14 4.1 39.5
13:45 1020 30.12 849 25.07 34.6 94.3 15 4.5 40.1
13:50 1020 30.12 849 25.07 34.9 94.8 14 4.4 39.9
13:55 1020 30.12 849 25.07 34.7 94.4 14 4.1 39.4
14:00 1020 30.12 849 25.07 34.7 94.4 15 4.4 39.8
14:05 1020 30.12 849 25.07 34.5 94.1 15 4.2 39.6
14:10 1020 30.12 849 25.07 34.6 94.3 14 3.5 38.3
14:15 1020 30.12 849 25.07 34.8 94.7 14 4.3 39.8
14:20 1020 30.12 849 25.07 34.7 94.5 14 3.8 38.8
14:25 1020 30.12 849 25.07 34.6 94.3 14 3.6 38.5
14:30 1020 30.12 849 25.07 35.5 95.8 14 3.9 39
14:35 1020 30.12 849 25.07 35.8 96.4 14 4.4 40
14:40 1020 30.12 849 25.07 34.7 94.4 15 4.5 40
14:45 1019 30.09 849 25.07 34.3 93.7 15 4.4 40
14:50 1019 30.09 849 25.07 33.9 93 16 4.9 40.8
14:55 1019 30.09 849 25.07 34.1 93.4 15 4.4 40
15:00 1019 30.09 849 25.07 34 93.1 15 4.1 39.4
15:05 1019 30.09 849 25.07 34.1 93.4 15 4.2 39.6
15:10 1019 30.09 849 25.07 33.6 92.5 17 5.7 42.2
15:15 1019 30.09 849 25.07 33.8 92.8 17 5.8 42.4
15:20 1019 30.09 849 25.07 34.2 93.6 16 4.9 40.9
15:25 1019 30.09 849 25.07 33.9 93 15 4.5 40
15:30 1019 30.09 849 25.07 33.6 92.6 17 5.7 42.2
15:35 1019 30.09 849 25.07 33.5 92.3 18 6.5 43.6
15:40 1019 30.09 849 25.07 33.7 92.6 18 6.4 43.6
15:45 1019 30.09 849 25.07 33.5 92.3 19 6.9 44.5
15:50 1020 30.12 849 25.07 33.1 91.7 20 7.6 45.7
15:55 1020 30.12 849 25.07 32.6 90.7 21 7.9 46.3
16:00 1020 30.12 849 25.07 32.4 90.3 23 9.1 48.4
16:05 1020 30.12 850 25.1 31.7 89.1 22 7.7 45.8
16:10 1021 30.15 850 25.1 30.9 87.5 27 9.9 49.9
16:15 1021 30.15 851 25.13 27.6 81.6 32 9.9 49.8
16:20 1021 30.15 851 25.13 26.2 79.1 38 10.8 51.4
16:25 1022 30.18 851 25.13 23.8 74.9 51 13.3 55.9
16:30 1022 30.18 851 25.13 21.9 71.5 60 13.9 57.1
16:35 1022 30.18 852 25.16 20.5 68.9 59 12.4 54.4
16:40 1023 30.21 852 25.16 20.7 69.2 57 12.1 53.7
16:45 1023 30.21 852 25.16 20.9 69.5 57 12.2 53.9
16:50 1024 30.24 853 25.19 20.9 69.5 57 12.2 54
16:55 1024 30.24 853 25.19 20.8 69.4 59 12.5 54.5
17:00 1024 30.24 853 25.19 20.6 69 60 12.6 54.7
17:05 1024 30.24 854 25.22 20.5 68.9 60 12.5 54.4
17:10 1025 30.27 854 25.22 20.5 68.9 61 12.9 55.2
17:15 1025 30.27 854 25.22 20.2 68.4 64 13.3 56
17:20 1025 30.27 854 25.22 20.1 68.2 64 13.1 55.6
17:25 1024 30.24 854 25.22 20 68.1 65 13.3 55.9
17:30 1024 30.24 853 25.19 19.7 67.4 69 13.9 57.1
17:35 1024 30.24 853 25.19 19.7 67.5 64 12.7 54.9
17:40 1024 30.24 853 25.19 20.5 68.9 61 12.8 55
17:45 1024 30.24 853 25.19 20.3 68.5 65 13.7 56.6
17:50 1024 30.24 853 25.19 19.8 67.6 65 13.1 55.6
17:55 1023 30.21 853 25.19 20 68 63 12.9 55.2
18:00 1023 30.21 852 25.16 20.3 68.5 62 12.9 55.1
18:05 1023 30.21 852 25.16 20.2 68.4 61 12.5 54.5
18:10 1023 30.21 852 25.16 20.2 68.4 60 12.4 54.3
18:15 1023 30.21 852 25.16 20.3 68.6 59 12.1 53.7
18:20 1023 30.21 852 25.16 20.5 68.8 57 11.8 53.3
18:25 1023 30.21 852 25.16 20.6 69 55 11.3 52.4
18:30 1023 30.21 852 25.16 20.7 69.2 57 12 53.7
18:35 1022 30.18 852 25.16 20 68 62 12.6 54.8
18:40 1022 30.18 851 25.13 19.9 67.7 59 11.6 53
18:45 1022 30.18 851 25.13 20.4 68.8 59 12.2 53.9
18:50 1021 30.15 851 25.13 20.1 68.1 58 11.7 53
18:55 1021 30.15 851 25.13 20.2 68.4 58 11.8 53.2
19:00 1021 30.15 851 25.13 20.4 68.7 55 11.2 52.2
19:05 1021 30.15 851 25.13 20.7 69.3 53 11 51.8
19:10 1022 30.18 851 25.13 20.9 69.7 53 11.1 52
19:15 1022 30.18 851 25.13 21 69.9 54 11.5 52.8
19:20 1022 30.18 851 25.13 20.9 69.7 54 11.4 52.6
19:25 1022 30.18 851 25.13 20.7 69.3 57 11.9 53.5
19:30 1022 30.18 851 25.13 20.4 68.6 59 12.2 54
19:35 1022 30.18 851 25.13 20.1 68.1 59 12 53.6
19:40 1022 30.18 851 25.13 20.1 68.1 58 11.7 53
19:45 1022 30.18 851 25.13 20 67.9 59 11.8 53.2
19:50 1022 30.18 851 25.13 19.9 67.7 60 12 53.6
19:55 1022 30.18 851 25.13 19.7 67.4 62 12.2 54
20:00 1022 30.18 851 25.13 19.5 67 64 12.5 54.6
20:05 1022 30.18 851 25.13 19.1 66.5 66 12.8 55
20:10 1022 30.18 851 25.13 18.9 66 66 12.6 54.6
20:15 1022 30.18 851 25.13 19.1 66.3 63 11.9 53.4
20:20 1022 30.18 851 25.13 19.7 67.5 59 11.6 52.9
20:25 1022 30.18 852 25.16 19.9 67.8 61 12.3 54.1
20:30 1023 30.21 852 25.16 19.8 67.6 63 12.5 54.6
20:35 1023 30.21 852 25.16 19.6 67.2 63 12.5 54.5
20:40 1023 30.21 852 25.16 19.5 67 62 12 53.5
20:45 1023 30.21 852 25.16 19.6 67.2 61 12 53.5
20:50 1023 30.21 852 25.16 19.5 67.2 62 12.2 53.9
20:55 1023 30.21 852 25.16 19.5 67.1 61 11.9 53.4
21:00 1023 30.21 852 25.16 19.5 67.1 63 12.4 54.4
21:05 1023 30.21 852 25.16 19.4 66.9 63 12.2 53.9
21:10 1023 30.21 852 25.16 19.3 66.8 63 12.2 54
21:15 1023 30.21 853 25.19 19.2 66.6 64 12.2 54
21:20 1023 30.21 853 25.19 19.2 66.6 64 12.3 54.2
21:25 1023 30.21 853 25.19 19.4 66.8 64 12.5 54.5
21:30 1023 30.21 853 25.19 19.1 66.4 67 12.8 55.1
21:35 1023 30.21 853 25.19 18.8 65.8 67 12.7 54.8
21:40 1024 30.24 853 25.19 18.9 66 66 12.4 54.4
21:45 1024 30.24 853 25.19 19 66.2 65 12.4 54.2
21:50 1024 30.24 853 25.19 19 66.1 67 12.7 54.8
21:55 1024 30.24 853 25.19 19 66.3 64 12.2 53.9
22:00 1023 30.21 853 25.19 19 66.3 68 13.1 55.6
22:05 1023 30.21 852 25.16 18.4 65.1 71 13.1 55.6
22:10 1023 30.21 852 25.16 18.1 64.6 71 12.8 55.1
22:15 1023 30.21 852 25.16 18.1 64.7 69 12.5 54.4
22:20 1022 30.18 852 25.16 18.2 64.7 68 12.4 54.3
22:25 1022 30.18 852 25.16 18.3 64.9 67 12.2 54
22:30 1022 30.18 852 25.16 18.4 65.1 67 12.3 54.1
22:35 1022 30.18 852 25.16 18.2 64.7 69 12.4 54.4
22:40 1022 30.18 852 25.16 18.1 64.5 68 12.1 53.9
22:45 1022 30.18 851 25.13 18 64.3 70 12.5 54.4
22:50 1022 30.18 851 25.13 17.7 63.8 72 12.7 54.8
22:55 1022 30.18 851 25.13 17.4 63.4 72 12.3 54.1
23:00 1022 30.18 851 25.13 17.6 63.7 70 12.3 54.1
23:05 1021 30.15 851 25.13 17.8 64.1 70 12.4 54.4
23:10 1021 30.15 851 25.13 17.8 64.1 69 12.1 53.8
23:15 1021 30.15 851 25.13 18.2 64.7 66 11.8 53.3
23:20 1022 30.18 851 25.13 18.4 65.2 66 12.1 53.7
23:25 1022 30.18 851 25.13 18.5 65.3 66 12.1 53.9
23:30 1022 30.18 851 25.13 18.4 65.1 65 11.8 53.3
23:35 1021 30.15 851 25.13 18.5 65.2 65 11.9 53.5
23:40 1021 30.15 851 25.13 18.4 65.1 66 12 53.6
23:45 1021 30.15 851 25.13 18.4 65 65 11.6 53
23:50 1021 30.15 851 25.13 18.3 65 67 12.1 53.8
23:55 1021 30.15 851 25.13 18.2 64.8 66 11.8 53.3
24:00 1021 30.15 851 25.13 18.3 64.9 67 12 53.6